Time;durP1;ratioP1;P1;durP2;ratioP2;P2;SDS_P1;SDS_P2;PMS_P1;PMS_P2;Temp;Humidity;BMP_temperature;BMP_pressure;BME280_temperature;BME280_humidity;BME280_pressure;Samples;Min_cycle;Max_cycle;Signal;HPM_P1;HPM_P2
2021/07/04 00:01:02;;;;;;;5.07;4.67;;;22.40;34.70;;;;;;10447609;28;20225;-68
2021/07/04 00:06:05;;;;;;;5.60;5.13;;;22.30;35.60;;;;;;10455191;28;20329;-68
2021/07/04 00:11:10;;;;;;;5.37;4.87;;;22.20;35.20;;;;;;10453485;28;20232;-68
2021/07/04 00:16:16;;;;;;;5.27;4.87;;;22.10;35.90;;;;;;10461227;28;20257;-68
2021/07/04 00:21:19;;;;;;;5.40;4.97;;;22.00;36.70;;;;;;10453503;28;20217;-68
2021/07/04 00:26:22;;;;;;;5.23;4.83;;;21.90;35.90;;;;;;10451430;28;20228;-68
2021/07/04 00:31:27;;;;;;;4.83;4.43;;;21.90;36.20;;;;;;10453043;28;20225;-68
2021/07/04 00:36:30;;;;;;;5.70;5.10;;;21.90;37.40;;;;;;10453584;28;20240;-68
2021/07/04 00:41:34;;;;;;;5.23;4.83;;;21.90;36.50;;;;;;10446993;28;20248;-68
2021/07/04 00:46:38;;;;;;;5.20;4.70;;;21.90;36.40;;;;;;10452556;28;20664;-68
2021/07/04 00:51:42;;;;;;;5.47;5.07;;;21.90;37.60;;;;;;10455789;28;20713;-68
2021/07/04 00:56:45;;;;;;;5.07;4.67;;;21.90;36.80;;;;;;10448389;28;20251;-68
2021/07/04 01:01:49;;;;;;;4.83;4.40;;;21.80;36.90;;;;;;10451902;28;20600;-68
2021/07/04 01:06:52;;;;;;;5.37;4.90;;;21.80;38.10;;;;;;10444826;28;20862;-68
2021/07/04 01:11:56;;;;;;;6.07;4.93;;;21.80;37.20;;;;;;10448809;28;20224;-68
2021/07/04 01:17:00;;;;;;;5.40;4.90;;;21.70;37.80;;;;;;10456051;28;20238;-68
2021/07/04 01:22:04;;;;;;;4.93;4.57;;;21.70;38.00;;;;;;10453522;28;20232;-69
2021/07/04 01:27:09;;;;;;;5.47;5.00;;;21.70;38.00;;;;;;10451943;28;20235;-68
2021/07/04 01:32:13;;;;;;;4.87;4.47;;;21.70;38.10;;;;;;10452096;28;20224;-68
2021/07/04 01:37:16;;;;;;;5.10;4.70;;;21.70;38.00;;;;;;10452586;28;20727;-68
2021/07/04 01:42:21;;;;;;;5.37;4.97;;;21.70;38.00;;;;;;10446600;28;20221;-68
2021/07/04 01:47:24;;;;;;;5.30;4.90;;;21.80;38.30;;;;;;10450377;28;20767;-68
2021/07/04 01:52:27;;;;;;;5.10;4.63;;;21.80;38.10;;;;;;10448846;28;20224;-68
2021/07/04 01:57:32;;;;;;;5.63;5.23;;;21.90;38.20;;;;;;10448103;28;20926;-68
2021/07/04 02:02:35;;;;;;;5.30;4.90;;;21.80;38.40;;;;;;10448173;28;20237;-68
2021/07/04 02:07:38;;;;;;;5.50;5.00;;;21.80;38.10;;;;;;10455319;28;21093;-68
2021/07/04 02:12:43;;;;;;;5.40;4.97;;;21.80;38.10;;;;;;10449182;28;20236;-68
2021/07/04 02:17:48;;;;;;;5.57;4.80;;;21.80;39.00;;;;;;10452629;28;20237;-68
2021/07/04 02:22:51;;;;;;;4.90;4.60;;;21.80;38.20;;;;;;10450125;28;20600;-68
2021/07/04 02:27:55;;;;;;;5.20;4.80;;;21.80;38.10;;;;;;10448230;28;20239;-68
2021/07/04 02:33:02;;;;;;;6.13;5.53;;;21.80;39.00;;;;;;10450081;28;20229;-68
2021/07/04 02:38:07;;;;;;;5.50;5.00;;;21.80;38.70;;;;;;10441841;28;20582;-68
2021/07/04 02:43:13;;;;;;;5.37;4.97;;;21.80;38.80;;;;;;10444561;28;20226;-69
2021/07/04 02:48:17;;;;;;;5.60;5.20;;;21.80;39.60;;;;;;10449434;28;20235;-68
2021/07/04 02:53:20;;;;;;;6.13;5.07;;;21.80;38.80;;;;;;10444543;28;21026;-68
2021/07/04 02:58:24;;;;;;;5.60;5.10;;;21.80;38.70;;;;;;10447026;28;20240;-68
2021/07/04 03:03:29;;;;;;;6.13;5.63;;;21.80;39.70;;;;;;10443060;28;20232;-68
2021/07/04 03:08:32;;;;;;;6.43;5.83;;;21.70;39.10;;;;;;10453424;28;20240;-68
2021/07/04 03:13:37;;;;;;;6.47;5.67;;;21.60;39.10;;;;;;10444427;28;20240;-69
2021/07/04 03:18:40;;;;;;;6.30;5.80;;;21.60;40.20;;;;;;10453910;28;20701;-68
2021/07/04 03:23:43;;;;;;;6.37;5.77;;;21.60;39.40;;;;;;10447801;28;20235;-68
2021/07/04 03:28:48;;;;;;;6.00;5.50;;;21.50;39.70;;;;;;10451544;28;20233;-68
2021/07/04 03:33:51;;;;;;;6.13;5.53;;;21.40;40.60;;;;;;10448525;28;20237;-68
2021/07/04 03:38:55;;;;;;;6.50;5.90;;;21.30;39.90;;;;;;10442684;28;20611;-68
2021/07/04 03:44:00;;;;;;;6.17;5.67;;;21.30;40.10;;;;;;10444417;28;20239;-68
2021/07/04 03:49:04;;;;;;;6.37;5.83;;;21.30;41.00;;;;;;10446569;28;20604;-68
2021/07/04 03:54:07;;;;;;;6.63;6.00;;;21.20;40.60;;;;;;10445250;28;20221;-68
2021/07/04 03:59:11;;;;;;;7.00;6.47;;;21.30;40.40;;;;;;10448873;28;20237;-68
2021/07/04 04:04:14;;;;;;;9.87;6.47;;;21.30;41.50;;;;;;10443935;28;20747;-68
2021/07/04 04:09:17;;;;;;;7.00;5.90;;;21.30;40.70;;;;;;10454784;28;20221;-68
2021/07/04 04:14:22;;;;;;;5.97;5.47;;;21.30;40.80;;;;;;10454489;28;20228;-68
2021/07/04 04:19:25;;;;;;;7.27;6.57;;;21.30;41.60;;;;;;10452649;28;20232;-68
2021/07/04 04:24:29;;;;;;;6.53;5.90;;;21.30;40.90;;;;;;10456268;28;20224;-68
2021/07/04 04:29:33;;;;;;;6.83;6.23;;;21.40;41.30;;;;;;10446658;28;20221;-68
2021/07/04 04:34:37;;;;;;;6.23;5.73;;;21.40;41.90;;;;;;10449901;28;20231;-68
2021/07/04 04:39:40;;;;;;;6.40;5.83;;;21.30;41.20;;;;;;10455766;28;20232;-68
2021/07/04 04:44:45;;;;;;;6.07;5.57;;;21.30;41.20;;;;;;10453568;28;20253;-68
2021/07/04 04:49:48;;;;;;;6.80;6.10;;;21.30;42.00;;;;;;10454021;28;20233;-68
2021/07/04 04:54:51;;;;;;;7.23;6.50;;;21.30;41.40;;;;;;10453534;28;20229;-68
2021/07/04 04:59:56;;;;;;;7.40;6.17;;;21.30;41.60;;;;;;10450240;28;20228;-68
2021/07/04 05:04:59;;;;;;;6.80;6.20;;;21.30;42.30;;;;;;10451088;28;20228;-68
2021/07/04 05:10:02;;;;;;;7.43;6.73;;;21.30;42.70;;;;;;10458446;28;20233;-70
2021/07/04 05:15:08;;;;;;;7.53;6.80;;;21.30;42.00;;;;;;10453182;28;20263;-68
2021/07/04 05:20:12;;;;;;;7.17;6.47;;;21.30;43.10;;;;;;10453821;28;20568;-68
2021/07/04 05:25:16;;;;;;;7.63;6.60;;;21.30;42.50;;;;;;10446295;28;20217;-68
2021/07/04 05:30:20;;;;;;;7.40;6.70;;;21.30;42.50;;;;;;10453674;28;20220;-68
2021/07/04 05:35:24;;;;;;;7.70;7.00;;;21.40;43.50;;;;;;10455348;28;20232;-68
2021/07/04 05:40:27;;;;;;;7.87;7.17;;;21.40;42.70;;;;;;10450549;28;20225;-68
2021/07/04 05:45:32;;;;;;;6.80;6.20;;;21.40;42.60;;;;;;10452641;28;20225;-68
2021/07/04 05:50:39;;;;;;;6.77;6.17;;;21.40;43.40;;;;;;10450241;28;20283;-68
2021/07/04 05:55:43;;;;;;;7.47;6.80;;;21.50;42.90;;;;;;10452553;28;20232;-68
2021/07/04 06:00:48;;;;;;;7.17;6.57;;;21.60;43.20;;;;;;10454387;28;20228;-68
2021/07/04 06:05:51;;;;;;;7.17;6.57;;;21.70;43.80;;;;;;10451364;28;21040;-68
2021/07/04 06:10:54;;;;;;;7.63;6.87;;;21.80;43.10;;;;;;10449895;28;20252;-68
2021/07/04 06:15:58;;;;;;;7.23;6.53;;;21.80;43.20;;;;;;10455512;28;20224;-68
2021/07/04 06:21:02;;;;;;;6.73;6.23;;;21.90;43.90;;;;;;10438393;28;20227;-70
2021/07/04 06:26:05;;;;;;;7.30;6.70;;;22.00;43.20;;;;;;10449305;28;20235;-68
2021/07/04 06:31:10;;;;;;;7.60;6.90;;;22.00;43.20;;;;;;10449609;28;20599;-68
2021/07/04 06:36:13;;;;;;;7.47;6.20;;;22.10;43.60;;;;;;10446447;28;20279;-68
2021/07/04 06:41:17;;;;;;;6.43;5.83;;;22.10;43.10;;;;;;10450655;28;20251;-68
2021/07/04 06:46:21;;;;;;;6.73;6.13;;;22.20;42.90;;;;;;10447625;28;20229;-68
2021/07/04 06:51:25;;;;;;;6.23;5.73;;;22.30;43.50;;;;;;10454675;28;20767;-68
2021/07/04 06:56:28;;;;;;;6.57;6.07;;;22.30;42.90;;;;;;10444516;28;20225;-68
2021/07/04 07:01:34;;;;;;;5.70;5.30;;;22.30;42.90;;;;;;10441070;28;20240;-68
2021/07/04 07:06:37;;;;;;;6.40;5.90;;;22.30;43.60;;;;;;10452264;28;20241;-68
2021/07/04 07:11:40;;;;;;;5.93;5.43;;;22.30;42.80;;;;;;10443708;28;20233;-68
2021/07/04 07:16:45;;;;;;;6.27;5.73;;;22.40;42.70;;;;;;10416682;28;1102012;-68
2021/07/04 07:21:48;;;;;;;6.23;5.73;;;22.30;43.10;;;;;;10448171;28;20473;-68
2021/07/04 07:26:51;;;;;;;6.03;5.50;;;22.30;43.00;;;;;;10444391;28;20240;-68
2021/07/04 07:31:56;;;;;;;6.00;5.50;;;22.30;43.00;;;;;;10450397;28;20232;-68
2021/07/04 07:36:59;;;;;;;5.77;5.37;;;22.30;43.30;;;;;;10445950;28;20236;-68
2021/07/04 07:42:03;;;;;;;5.33;4.83;;;22.40;43.10;;;;;;10441754;28;20236;-68
2021/07/04 07:47:08;;;;;;;5.57;5.17;;;22.40;43.10;;;;;;10453408;28;20232;-68
2021/07/04 07:52:11;;;;;;;5.57;4.97;;;22.40;43.30;;;;;;10460127;28;21080;-68
2021/07/04 07:57:14;;;;;;;5.17;4.77;;;22.50;42.70;;;;;;10452591;28;20224;-68
2021/07/04 08:02:19;;;;;;;5.67;4.33;;;22.50;42.60;;;;;;10455616;28;20725;-68
2021/07/04 08:07:22;;;;;;;4.80;4.43;;;22.50;42.80;;;;;;10446297;28;20697;-68
2021/07/04 08:12:26;;;;;;;4.13;3.83;;;22.60;42.80;;;;;;10458417;28;20228;-68
2021/07/04 08:17:30;;;;;;;3.70;3.40;;;22.60;43.00;;;;;;10457493;28;20233;-68
2021/07/04 08:22:34;;;;;;;4.27;3.97;;;22.70;42.40;;;;;;10447207;28;20229;-68
2021/07/04 08:27:37;;;;;;;3.87;3.57;;;22.80;42.40;;;;;;10452563;28;20290;-68
2021/07/04 08:32:43;;;;;;;4.17;3.87;;;22.90;42.40;;;;;;10454047;28;20228;-68
2021/07/04 08:37:46;;;;;;;4.10;3.80;;;23.10;42.30;;;;;;10451539;28;20232;-68
2021/07/04 08:42:50;;;;;;;3.93;3.63;;;23.20;42.50;;;;;;10450423;28;20232;-68
2021/07/04 08:47:55;;;;;;;3.93;3.63;;;23.40;42.10;;;;;;10453010;28;20747;-68
2021/07/04 08:52:59;;;;;;;3.60;3.40;;;23.50;41.80;;;;;;10448680;28;20270;-68
2021/07/04 08:58:03;;;;;;;4.17;3.87;;;23.60;41.50;;;;;;10457260;28;20225;-69
2021/07/04 09:03:25;;;;;;;3.70;3.40;;;23.60;41.50;;;;;;10439285;28;20233;-68
2021/07/04 09:08:28;;;;;;;3.70;3.50;;;23.80;41.30;;;;;;10451052;28;20252;-68
2021/07/04 09:13:31;;;;;;;3.70;3.40;;;23.90;41.70;;;;;;10453187;28;20231;-68
2021/07/04 09:18:36;;;;;;;3.80;3.50;;;24.00;41.20;;;;;;10452990;28;20233;-68
2021/07/04 09:23:40;;;;;;;3.77;3.57;;;24.10;40.30;;;;;;10454740;28;20231;-69
2021/07/04 09:28:44;;;;;;;3.50;3.20;;;24.10;40.80;;;;;;10455611;28;20255;-69
2021/07/04 09:34:03;;;;;;;3.67;3.37;;;24.00;41.00;;;;;;10448131;28;20236;-68
2021/07/04 09:39:17;;;;;;;4.03;3.73;;;23.90;41.50;;;;;;10454423;28;20611;-69
2021/07/04 09:44:24;;;;;;;3.27;3.00;;;23.80;41.50;;;;;;10453604;28;20223;-68
2021/07/04 09:49:29;;;;;;;3.07;2.87;;;23.70;42.10;;;;;;10445159;28;20605;-68
2021/07/04 09:54:32;;;;;;;3.30;3.00;;;23.70;41.70;;;;;;10446476;28;20235;-68
2021/07/04 09:59:35;;;;;;;3.50;3.30;;;23.80;41.40;;;;;;10446165;28;20240;-68
2021/07/04 10:04:40;;;;;;;3.20;3.00;;;23.80;41.50;;;;;;10449022;28;20229;-68
2021/07/04 10:09:43;;;;;;;3.23;2.97;;;23.80;41.50;;;;;;10450437;28;20237;-68
2021/07/04 10:14:48;;;;;;;3.20;2.90;;;23.80;40.90;;;;;;10453526;28;20225;-68
2021/07/04 10:19:54;;;;;;;3.13;2.93;;;23.90;40.90;;;;;;10451096;28;20736;-68
2021/07/04 10:24:58;;;;;;;3.03;2.83;;;23.90;41.20;;;;;;10452028;28;20228;-68
2021/07/04 10:30:01;;;;;;;2.50;2.30;;;24.00;40.90;;;;;;10452049;28;20228;-68
2021/07/04 10:35:09;;;;;;;2.80;2.60;;;24.10;40.70;;;;;;10445110;28;20229;-68
2021/07/04 10:40:15;;;;;;;2.30;2.20;;;24.10;40.10;;;;;;10446055;28;20749;-68
2021/07/04 10:45:33;;;;;;;2.80;2.60;;;24.30;40.30;;;;;;10442624;28;20255;-68
2021/07/04 10:50:37;;;;;;;2.73;2.53;;;24.40;40.40;;;;;;10449185;28;20243;-68
2021/07/04 10:55:41;;;;;;;2.73;2.63;;;24.60;40.50;;;;;;10445293;28;20232;-68
2021/07/04 11:00:46;;;;;;;2.80;2.60;;;24.80;40.40;;;;;;10445844;28;20225;-68
2021/07/04 11:05:54;;;;;;;2.63;2.43;;;25.00;40.20;;;;;;10450826;28;20255;-68
2021/07/04 11:11:03;;;;;;;2.83;2.70;;;25.20;40.00;;;;;;10447676;28;20243;-68
2021/07/04 11:16:11;;;;;;;2.47;2.37;;;25.40;39.60;;;;;;10450591;28;20739;-68
2021/07/04 11:21:20;;;;;;;2.37;2.27;;;25.60;39.20;;;;;;10447059;28;20233;-68
2021/07/04 11:26:24;;;;;;;2.50;2.30;;;25.70;38.30;;;;;;10455615;28;20716;-68
2021/07/04 11:31:32;;;;;;;2.77;2.57;;;25.80;38.40;;;;;;10453056;28;20225;-68
2021/07/04 11:36:39;;;;;;;2.70;2.50;;;25.90;38.10;;;;;;10455058;28;20232;-68
2021/07/04 11:41:49;;;;;;;2.73;2.57;;;26.10;37.80;;;;;;10457869;28;20240;-68
2021/07/04 11:46:54;;;;;;;2.53;2.43;;;26.10;37.00;;;;;;10454208;28;20237;-68
2021/07/04 11:52:02;;;;;;;2.43;2.17;;;26.30;37.60;;;;;;10459366;28;20729;-68
2021/07/04 12:02:24;;;;;;;2.37;2.27;;;26.40;36.90;;;;;;10448431;28;20237;-68
2021/07/04 12:07:29;;;;;;;2.27;2.17;;;26.50;36.80;;;;;;10463624;28;20717;-68
2021/07/04 12:12:35;;;;;;;2.13;2.03;;;26.60;36.80;;;;;;10458165;28;20302;-68
2021/07/04 12:17:41;;;;;;;2.23;2.13;;;26.60;36.20;;;;;;10453952;28;20596;-68
2021/07/04 12:22:50;;;;;;;2.47;2.37;;;26.70;36.60;;;;;;10457870;28;20712;-68
2021/07/04 12:27:55;;;;;;;2.47;2.37;;;26.80;36.70;;;;;;10453418;28;20233;-68
2021/07/04 12:33:01;;;;;;;2.40;2.30;;;26.90;36.20;;;;;;10451077;28;20229;-68
2021/07/04 12:38:09;;;;;;;2.20;2.10;;;27.00;36.10;;;;;;10454327;28;20225;-68
2021/07/04 12:43:14;;;;;;;2.50;2.40;;;27.10;35.40;;;;;;10454204;28;20227;-68
2021/07/04 12:48:20;;;;;;;2.10;2.00;;;27.10;35.30;;;;;;10456852;28;20228;-68
2021/07/04 12:53:36;;;;;;;2.13;2.00;;;27.10;35.10;;;;;;10449255;28;20235;-68
2021/07/04 12:58:41;;;;;;;2.30;2.20;;;27.10;34.70;;;;;;10454967;28;20232;-68
2021/07/04 13:03:47;;;;;;;2.23;2.13;;;27.30;34.40;;;;;;10448823;28;20232;-68
2021/07/04 13:08:57;;;;;;;2.20;2.10;;;27.40;34.10;;;;;;10458378;28;20611;-68
2021/07/04 13:14:02;;;;;;;2.60;2.40;;;27.50;33.10;;;;;;10452858;28;20765;-68
2021/07/04 13:19:22;;;;;;;2.33;2.23;;;27.50;33.90;;;;;;10422318;28;20222;-68
2021/07/04 13:24:29;;;;;;;2.30;2.20;;;27.50;34.10;;;;;;10402384;28;20229;-68
2021/07/04 13:29:39;;;;;;;2.40;2.20;;;27.60;34.00;;;;;;10411020;28;20234;-68
2021/07/04 13:34:45;;;;;;;2.30;2.20;;;27.70;34.30;;;;;;10413353;28;20225;-68
2021/07/04 13:39:58;;;;;;;2.33;2.23;;;27.70;33.60;;;;;;10451954;28;20601;-68
2021/07/04 13:45:04;;;;;;;2.40;2.20;;;27.80;33.50;;;;;;10450163;28;20689;-72
2021/07/04 13:50:08;;;;;;;2.33;2.13;;;27.80;33.60;;;;;;10454065;28;20244;-68
2021/07/04 13:55:12;;;;;;;2.40;2.30;;;27.80;33.30;;;;;;10453800;28;20225;-68
2021/07/04 14:00:17;;;;;;;2.43;2.23;;;27.90;32.70;;;;;;10453906;28;20235;-68
2021/07/04 14:05:20;;;;;;;2.47;2.37;;;27.90;33.20;;;;;;10456774;28;20591;-68
2021/07/04 14:10:25;;;;;;;2.03;1.93;;;28.00;33.20;;;;;;10454409;28;20239;-68
2021/07/04 14:15:28;;;;;;;2.20;2.10;;;28.00;32.80;;;;;;10449459;28;20308;-68
2021/07/04 14:20:32;;;;;;;1.90;1.80;;;28.00;32.90;;;;;;10451766;28;20233;-68
2021/07/04 14:25:36;;;;;;;2.20;2.10;;;28.10;32.80;;;;;;10449028;28;20228;-68
2021/07/04 14:30:39;;;;;;;2.37;2.20;;;28.10;31.10;;;;;;10451614;28;20224;-68
2021/07/04 14:35:45;;;;;;;2.00;1.90;;;28.00;32.40;;;;;;10453857;28;20233;-68
2021/07/04 14:40:49;;;;;;;2.20;2.10;;;27.90;32.20;;;;;;10454481;28;20238;-68
2021/07/04 14:45:52;;;;;;;2.20;2.00;;;27.70;31.90;;;;;;10454625;28;20244;-68
2021/07/04 14:51:01;;;;;;;2.23;2.13;;;27.70;32.20;;;;;;10456073;28;20753;-68
2021/07/04 14:56:09;;;;;;;2.90;2.70;;;27.60;31.80;;;;;;10448364;28;20235;-68
2021/07/04 15:01:12;;;;;;;2.40;2.30;;;27.60;31.90;;;;;;10448538;28;20263;-68
2021/07/04 15:06:15;;;;;;;2.33;2.13;;;27.60;32.00;;;;;;10449214;28;20245;-68
2021/07/04 15:11:20;;;;;;;2.30;2.20;;;27.60;32.00;;;;;;10446029;28;20235;-68
2021/07/04 15:16:23;;;;;;;2.27;2.17;;;27.60;31.30;;;;;;10451525;28;20221;-68
2021/07/04 15:21:28;;;;;;;2.30;2.20;;;27.70;31.80;;;;;;10448513;28;20268;-68
2021/07/04 15:26:32;;;;;;;2.13;2.03;;;27.70;31.70;;;;;;10456458;28;20320;-68
2021/07/04 15:31:36;;;;;;;2.43;2.33;;;27.60;31.30;;;;;;10451433;28;20229;-68
2021/07/04 15:36:39;;;;;;;2.40;2.27;;;27.60;32.00;;;;;;10447281;28;20233;-68
2021/07/04 15:41:46;;;;;;;3.10;2.80;;;27.60;32.10;;;;;;10449927;28;20239;-68
2021/07/04 15:46:51;;;;;;;2.93;2.73;;;27.50;31.60;;;;;;10450443;28;20240;-68
2021/07/04 15:51:54;;;;;;;2.87;2.50;;;27.50;32.40;;;;;;10445103;28;20308;-68
2021/07/04 15:56:58;;;;;;;2.50;2.30;;;27.50;32.20;;;;;;10454714;28;20228;-68
2021/07/04 16:02:02;;;;;;;2.47;2.23;;;27.50;32.00;;;;;;10434508;28;20716;-73
2021/07/04 16:07:06;;;;;;;2.30;2.20;;;27.40;32.00;;;;;;10446221;28;20676;-68
2021/07/04 16:12:11;;;;;;;2.30;2.20;;;27.30;32.00;;;;;;10453701;28;20229;-68
2021/07/04 16:17:14;;;;;;;2.10;2.00;;;27.20;31.80;;;;;;10453560;28;20225;-68
2021/07/04 16:22:17;;;;;;;2.37;2.20;;;27.20;32.20;;;;;;10458110;28;20727;-68
2021/07/04 16:27:25;;;;;;;2.50;2.40;;;27.10;32.30;;;;;;10451468;28;20229;-68
2021/07/04 16:32:28;;;;;;;2.83;2.67;;;27.00;32.30;;;;;;10449770;28;20866;-68
2021/07/04 16:37:31;;;;;;;2.20;2.10;;;26.90;32.50;;;;;;10453398;28;20236;-68
2021/07/04 16:42:36;;;;;;;2.63;2.47;;;26.80;32.80;;;;;;10451562;28;20710;-68
2021/07/04 16:47:39;;;;;;;2.90;2.70;;;26.60;33.90;;;;;;10447905;28;20236;-68
2021/07/04 16:52:45;;;;;;;2.33;2.23;;;26.60;33.40;;;;;;10450126;28;20282;-68
2021/07/04 16:57:50;;;;;;;2.50;2.40;;;26.60;33.30;;;;;;10445802;28;20233;-68
2021/07/04 17:02:53;;;;;;;2.47;2.37;;;26.50;33.30;;;;;;10450560;28;20239;-69
2021/07/04 17:07:56;;;;;;;2.33;2.23;;;26.50;33.40;;;;;;10455685;28;20259;-68
2021/07/04 17:13:01;;;;;;;1.97;1.87;;;26.40;33.70;;;;;;10449062;28;20756;-68
2021/07/04 17:18:05;;;;;;;2.00;1.90;;;26.10;33.00;;;;;;10454881;28;20835;-68
2021/07/04 17:23:09;;;;;;;1.80;1.70;;;25.90;33.00;;;;;;10452140;28;20311;-68
2021/07/04 17:28:13;;;;;;;1.90;1.80;;;25.60;33.40;;;;;;10453157;28;20250;-68
2021/07/04 17:33:16;;;;;;;1.77;1.67;;;25.40;34.00;;;;;;10450720;28;20299;-68
2021/07/04 17:38:19;;;;;;;1.30;1.30;;;25.20;33.60;;;;;;10453976;28;20253;-68
2021/07/04 17:43:24;;;;;;;1.87;1.77;;;24.80;33.60;;;;;;10445542;28;20229;-68
2021/07/04 17:48:27;;;;;;;2.97;1.70;;;24.30;34.00;;;;;;10454532;28;20742;-68
2021/07/04 17:53:30;;;;;;;1.73;1.60;;;23.90;34.50;;;;;;10446001;28;20225;-68
2021/07/04 17:58:35;;;;;;;1.50;1.40;;;23.60;35.00;;;;;;10446296;28;20747;-69
2021/07/04 18:03:38;;;;;;;2.43;1.60;;;23.40;35.80;;;;;;10449352;28;20236;-69
2021/07/04 18:08:41;;;;;;;1.70;1.60;;;23.10;35.60;;;;;;10448657;28;20232;-69
2021/07/04 18:13:47;;;;;;;2.23;1.70;;;22.80;35.90;;;;;;10454779;28;20239;-69
2021/07/04 18:18:50;;;;;;;1.70;1.60;;;22.50;37.00;;;;;;10451709;28;20233;-69
2021/07/04 18:23:53;;;;;;;1.53;1.43;;;22.30;36.40;;;;;;10449312;28;20235;-69
2021/07/04 18:28:58;;;;;;;3.83;1.37;;;22.00;36.50;;;;;;10449531;28;20240;-69
2021/07/04 18:34:02;;;;;;;0.90;0.90;;;21.70;38.00;;;;;;10441009;28;20225;-68
2021/07/04 18:39:08;;;;;;;1.20;1.20;;;21.50;37.40;;;;;;10447039;28;20233;-69
2021/07/04 18:44:13;;;;;;;1.60;1.23;;;21.30;37.60;;;;;;10446195;28;20272;-68
2021/07/04 18:49:16;;;;;;;2.67;1.10;;;21.20;37.70;;;;;;10447715;28;20225;-68
2021/07/04 18:54:19;;;;;;;1.90;1.30;;;21.10;37.50;;;;;;10444274;28;20236;-68
2021/07/04 18:59:24;;;;;;;1.40;1.30;;;21.00;37.40;;;;;;10443612;28;20232;-68
2021/07/04 19:04:27;;;;;;;1.53;1.43;;;20.90;38.80;;;;;;10444052;28;20236;-68
2021/07/04 19:09:30;;;;;;;1.60;1.50;;;20.70;38.60;;;;;;10452691;28;20239;-68
2021/07/04 19:14:35;;;;;;;1.80;1.53;;;20.50;39.10;;;;;;10450075;28;20238;-68
2021/07/04 19:19:38;;;;;;;1.73;1.63;;;20.40;40.20;;;;;;10455206;28;20233;-68
2021/07/04 19:24:41;;;;;;;2.10;1.57;;;20.30;39.80;;;;;;10450142;28;20732;-68
2021/07/04 19:29:46;;;;;;;2.10;1.70;;;20.20;39.90;;;;;;10445126;28;20234;-68
2021/07/04 19:34:52;;;;;;;2.00;1.80;;;20.10;40.60;;;;;;10448731;28;20251;-68
2021/07/04 19:39:56;;;;;;;1.80;1.70;;;20.20;40.10;;;;;;10444652;28;20232;-68
2021/07/04 19:45:00;;;;;;;1.90;1.73;;;20.20;40.30;;;;;;10446341;28;20228;-68
2021/07/04 19:50:05;;;;;;;1.70;1.60;;;20.10;41.00;;;;;;10451551;28;20232;-69
2021/07/04 19:55:10;;;;;;;1.90;1.80;;;20.10;41.00;;;;;;10458264;28;21316;-68
2021/07/04 20:00:17;;;;;;;2.47;1.97;;;20.10;41.00;;;;;;10461299;28;20225;-68
2021/07/04 20:05:21;;;;;;;1.77;1.67;;;20.10;41.90;;;;;;10458364;28;20773;-68
2021/07/04 20:10:27;;;;;;;2.07;1.80;;;20.10;41.00;;;;;;10447383;28;20574;-68
2021/07/04 20:15:33;;;;;;;1.90;1.80;;;20.10;41.30;;;;;;10457957;28;20720;-68
2021/07/04 20:20:36;;;;;;;2.10;2.00;;;20.10;41.90;;;;;;10453311;28;20229;-68
2021/07/04 20:25:39;;;;;;;2.73;1.93;;;20.10;42.20;;;;;;10449653;28;20733;-68
2021/07/04 20:30:44;;;;;;;1.90;1.80;;;20.00;41.70;;;;;;10448393;28;20233;-68
2021/07/04 20:35:48;;;;;;;1.70;1.60;;;20.00;42.20;;;;;;10452569;28;20235;-68
2021/07/04 20:40:51;;;;;;;2.00;1.90;;;20.00;41.70;;;;;;10453756;28;20370;-68
2021/07/04 20:45:57;;;;;;;1.73;1.63;;;20.00;41.80;;;;;;10455016;28;20716;-68
2021/07/04 20:51:00;;;;;;;2.53;1.87;;;20.00;42.70;;;;;;10452024;28;20255;-68
2021/07/04 20:56:03;;;;;;;1.90;1.80;;;20.00;41.90;;;;;;10454440;28;20233;-68
2021/07/04 21:01:08;;;;;;;1.60;1.50;;;20.00;41.70;;;;;;10454325;28;20403;-68
2021/07/04 21:06:12;;;;;;;1.70;1.60;;;20.00;42.40;;;;;;10456721;28;20240;-68
2021/07/04 21:11:15;;;;;;;1.90;1.80;;;20.10;41.90;;;;;;10461387;28;20224;-68
2021/07/04 21:16:20;;;;;;;3.33;2.00;;;20.10;42.10;;;;;;10453354;28;20224;-68
2021/07/04 21:21:23;;;;;;;2.50;2.10;;;20.00;42.70;;;;;;10451222;28;20232;-68
2021/07/04 21:26:28;;;;;;;2.00;1.90;;;20.00;42.30;;;;;;10450756;28;20700;-68
2021/07/04 21:31:37;;;;;;;2.20;2.00;;;20.00;42.40;;;;;;10456268;28;20251;-68
2021/07/04 21:36:41;;;;;;;2.30;2.10;;;20.00;43.20;;;;;;10448956;28;20229;-68
2021/07/04 21:41:45;;;;;;;2.00;1.90;;;20.00;42.70;;;;;;10455490;28;20233;-68
2021/07/04 21:46:49;;;;;;;2.20;2.00;;;20.00;42.70;;;;;;10457153;28;20256;-68
2021/07/04 21:51:52;;;;;;;2.40;2.20;;;20.00;44.00;;;;;;10455574;28;20224;-68
2021/07/04 21:56:56;;;;;;;2.03;1.93;;;19.90;42.70;;;;;;10453078;28;20228;-68
2021/07/04 22:02:00;;;;;;;2.37;1.80;;;19.90;42.80;;;;;;10448811;28;20236;-68
2021/07/04 22:07:04;;;;;;;1.83;1.73;;;19.80;43.40;;;;;;10451556;28;20229;-68
2021/07/04 22:12:07;;;;;;;2.33;1.77;;;19.80;42.90;;;;;;10447014;28;20243;-68
2021/07/04 22:17:15;;;;;;;2.57;1.53;;;19.80;42.90;;;;;;10451422;28;20606;-68
2021/07/04 22:22:18;;;;;;;2.23;1.67;;;19.80;43.80;;;;;;10451387;28;20770;-68
2021/07/04 22:27:22;;;;;;;1.87;1.77;;;19.70;42.90;;;;;;10448763;28;20233;-68
2021/07/04 22:32:26;;;;;;;2.43;2.00;;;19.70;42.90;;;;;;10448540;28;20229;-68
2021/07/04 22:37:29;;;;;;;1.80;1.70;;;19.70;43.50;;;;;;10451939;28;20785;-68
2021/07/04 22:42:33;;;;;;;2.10;1.90;;;19.70;43.10;;;;;;10454179;28;20225;-68
2021/07/04 22:47:37;;;;;;;3.10;1.90;;;19.60;43.10;;;;;;10456322;28;20232;-68
2021/07/04 22:52:41;;;;;;;1.87;1.77;;;19.60;43.70;;;;;;10446683;28;20231;-68
2021/07/04 22:57:46;;;;;;;1.80;1.70;;;19.60;43.40;;;;;;10453246;28;20239;-68
2021/07/04 23:02:53;;;;;;;2.37;1.80;;;19.60;43.40;;;;;;10445732;28;20246;-68
2021/07/04 23:07:57;;;;;;;2.23;1.57;;;19.60;44.10;;;;;;10448575;28;20240;-68
2021/07/04 23:13:00;;;;;;;1.80;1.70;;;19.60;43.30;;;;;;10441295;28;20225;-68
2021/07/04 23:18:05;;;;;;;1.60;1.50;;;19.60;43.40;;;;;;10453129;28;20232;-68
2021/07/04 23:23:10;;;;;;;2.00;1.80;;;19.50;44.00;;;;;;10458810;28;20247;-68
2021/07/04 23:28:13;;;;;;;2.70;1.80;;;19.50;43.50;;;;;;10453433;28;20221;-68
2021/07/04 23:33:18;;;;;;;1.73;1.63;;;19.50;43.40;;;;;;10459765;28;20595;-68
2021/07/04 23:38:22;;;;;;;2.17;1.97;;;19.50;44.00;;;;;;10462021;28;20229;-68
2021/07/04 23:43:28;;;;;;;1.67;1.33;;;19.50;43.60;;;;;;10458642;28;20221;-68
2021/07/04 23:48:33;;;;;;;2.00;1.47;;;19.50;43.60;;;;;;10456504;28;20308;-68
2021/07/04 23:53:37;;;;;;;1.30;1.20;;;19.50;44.00;;;;;;10456465;28;20229;-68
2021/07/04 23:58:40;;;;;;;1.07;1.07;;;19.50;43.60;;;;;;10451960;28;20618;-68
